Dades meteomassalio
Diari Summary for Marc 1, 2017 Units:  English    Metric   Both
« Previous Day
Next Day »
Diari Semanal Mensual Anual Personalitzat
  Maxima: Minima: Mijana:
Temperatura: TemperatureC °F 6.0 °F 11.1 °F
Rosada: DewpointC °F 2.5 °F 4.9 °F
Humitat: Humidity % 46 % 67 %
Velocitat del vent: WindSpeedKMH mph 0.0 mph 7.6 mph
Racha vent: WindSpeedGustKMH mph - -
Vent:- - SW
Pressio: PressurehPa in 1017.8 in -
Pluja: 0.0 in    
Historical Graphs
 
 
Tabular Data for Marc 1, 2017
Time Temperature Dew Point Pressure Wind Wind Speed Wind Gust Humidity Rainfall Rate (Hourly) solar Conditions
TemperatureC °F DewpointC °F PressurehPa in Calm     Humidity % HourlyPrecipMM in SolarRadiationWatts/m^2 W/m2 Conditions
00:01 8.6 °F 4.2 °F 1018.2 in West 16.7 mph 16.7 mph 74 % 0.0 in 0.0 W/m2 CLR
00:06 8.6 °F 4.4 °F 1018.2 in WNW 17.7 mph 17.7 mph 75 % 0.0 in 0.0 W/m2 CLR
00:11 8.6 °F 4.4 °F 1018.2 in West 18.5 mph 18.5 mph 75 % 0.0 in 0.0 W/m2 CLR
00:16 8.6 °F 4.4 °F 1018.2 in West 19.3 mph 19.3 mph 75 % 0.0 in 0.0 W/m2 CLR
00:21 8.5 °F 4.5 °F 1018.2 in NW 20.4 mph 20.4 mph 76 % 0.0 in 0.0 W/m2 CLR
00:26 8.4 °F 4.4 °F 1018.2 in West 18.5 mph 18.5 mph 76 % 0.0 in 0.0 W/m2 CLR
00:31 8.4 °F 4.6 °F 1018.2 in WNW 19.3 mph 19.3 mph 77 % 0.0 in 0.0 W/m2 CLR
00:36 8.4 °F 4.8 °F 1018.5 in West 18.5 mph 18.5 mph 78 % 0.0 in 0.0 W/m2 CLR
00:41 8.3 °F 4.7 °F 1018.5 in West 13.0 mph 13.0 mph 78 % 0.0 in 0.0 W/m2 CLR
00:46 8.3 °F 4.7 °F 1018.2 in West 14.8 mph 14.8 mph 78 % 0.0 in 0.0 W/m2 CLR
00:51 8.3 °F 4.7 °F 1018.2 in West 14.5 mph 14.5 mph 78 % 0.0 in 0.0 W/m2 CLR
00:56 8.2 °F 4.6 °F 1018.5 in West 22.2 mph 22.2 mph 78 % 0.0 in 0.0 W/m2 CLR
01:01 8.2 °F 4.7 °F 1018.5 in WNW 18.5 mph 18.5 mph 79 % 0.0 in 0.0 W/m2 CLR
01:06 8.2 °F 4.7 °F 1018.8 in WSW 18.5 mph 18.5 mph 79 % 0.0 in 0.0 W/m2 CLR
01:11 8.2 °F 4.7 °F 1018.5 in West 18.5 mph 18.5 mph 79 % 0.0 in 0.0 W/m2 CLR
01:16 8.2 °F 4.6 °F 1018.5 in WNW 20.4 mph 20.4 mph 78 % 0.0 in 0.0 W/m2 CLR
01:21 8.2 °F 4.6 °F 1018.5 in West 20.9 mph 20.9 mph 78 % 0.0 in 0.0 W/m2 CLR
01:26 8.3 °F 4.7 °F 1018.5 in West 19.3 mph 19.3 mph 78 % 0.0 in 0.0 W/m2 CLR
01:31 8.4 °F 4.6 °F 1018.5 in SW 18.5 mph 18.5 mph 77 % 0.0 in 0.0 W/m2 CLR
01:32 8.4 °F 4.6 °F 1018.5 in WSW 18.5 mph 18.5 mph 77 % 0.0 in 0.0 W/m2 CLR
01:37 8.4 °F 4.7 °F 1018.5 in West 22.2 mph 22.2 mph 77 % 0.0 in 0.0 W/m2 CLR
01:42 8.4 °F 4.7 °F 1018.8 in West 18.5 mph 18.5 mph 77 % 0.0 in 0.0 W/m2 CLR
01:47 8.5 °F 4.5 °F 1018.8 in West 22.2 mph 22.2 mph 76 % 0.0 in 0.0 W/m2 CLR
01:52 8.5 °F 4.5 °F 1018.8 in West 14.8 mph 14.8 mph 76 % 0.0 in 0.0 W/m2 CLR
01:57 8.6 °F 4.6 °F 1018.8 in WNW 25.9 mph 25.9 mph 76 % 0.0 in 0.0 W/m2 CLR
02:02 8.5 °F 4.3 °F 1018.8 in West 20.9 mph 20.9 mph 75 % 0.0 in 0.0 W/m2 CLR
02:07 8.6 °F 4.4 °F 1018.8 in WNW 14.8 mph 14.8 mph 75 % 0.0 in 0.0 W/m2 CLR
02:12 8.6 °F 4.4 °F 1018.8 in West 14.8 mph 14.8 mph 75 % 0.0 in 0.0 W/m2 CLR
02:17 8.6 °F 4.2 °F 1018.5 in WNW 17.7 mph 17.9 mph 74 % 0.0 in 0.0 W/m2 CLR
02:22 8.6 °F 4.2 °F 1018.8 in West 18.5 mph 18.5 mph 74 % 0.0 in 0.0 W/m2 CLR
02:27 8.6 °F 4.2 °F 1018.5 in WSW 18.5 mph 18.5 mph 74 % 0.0 in 0.0 W/m2 CLR
02:32 8.6 °F 4.2 °F 1018.5 in West 20.4 mph 20.4 mph 74 % 0.0 in 0.0 W/m2 CLR
02:37 8.7 °F 4.2 °F 1018.5 in West 18.5 mph 18.5 mph 73 % 0.0 in 0.0 W/m2 CLR
02:42 8.6 °F 4.1 °F 1018.5 in WNW 24.1 mph 24.1 mph 73 % 0.0 in 0.0 W/m2 CLR
02:47 8.6 °F 4.1 °F 1018.5 in West 24.1 mph 24.1 mph 73 % 0.0 in 0.0 W/m2 CLR
02:52 8.6 °F 4.0 °F 1018.5 in West 22.5 mph 22.5 mph 73 % 0.0 in 0.0 W/m2 CLR
02:57 8.6 °F 3.8 °F 1018.5 in West 25.9 mph 25.9 mph 72 % 0.0 in 0.0 W/m2 CLR
03:02 8.5 °F 3.7 °F 1018.5 in WNW 14.5 mph 14.5 mph 72 % 0.0 in 0.0 W/m2 CLR
03:07 8.4 °F 3.6 °F 1018.5 in West 13.0 mph 13.0 mph 72 % 0.0 in 0.0 W/m2 CLR
03:12 8.3 °F 3.6 °F 1018.5 in West 20.4 mph 20.4 mph 72 % 0.0 in 0.0 W/m2 CLR
03:17 8.3 °F 3.6 °F 1018.5 in West 13.0 mph 13.0 mph 72 % 0.0 in 0.0 W/m2 CLR
03:22 8.3 °F 3.6 °F 1018.5 in WSW 14.8 mph 14.8 mph 72 % 0.0 in 0.0 W/m2 CLR
03:27 8.2 °F 3.7 °F 1018.5 in WSW 18.5 mph 18.5 mph 73 % 0.0 in 0.0 W/m2 CLR
03:32 8.1 °F 3.6 °F 1018.8 in West 14.8 mph 14.8 mph 73 % 0.0 in 0.0 W/m2 CLR
03:37 8.1 °F 3.7 °F 1018.8 in West 13.0 mph 13.0 mph 74 % 0.0 in 0.0 W/m2 CLR
03:42 8.1 °F 3.7 °F 1018.8 in West 11.3 mph 11.3 mph 74 % 0.0 in 0.0 W/m2 CLR
03:47 8.1 °F 3.7 °F 1018.8 in West 14.8 mph 14.8 mph 74 % 0.0 in 0.0 W/m2 CLR
03:52 8.1 °F 3.6 °F 1018.8 in WSW 13.0 mph 13.0 mph 73 % 0.0 in 0.0 W/m2 CLR
03:57 8.1 °F 3.5 °F 1019.2 in Calm     73 % 0.0 in 0.0 W/m2 CLR
04:02 7.9 °F 3.6 °F 1019.2 in SW 1.9 mph   74 % 0.0 in 0.0 W/m2 CLR
04:07 7.7 °F 3.4 °F 1019.2 in WSW 5.6 mph 5.6 mph 74 % 0.0 in 0.0 W/m2 CLR
04:12 7.6 °F 3.4 °F 1019.2 in WSW 3.7 mph 3.7 mph 75 % 0.0 in 0.0 W/m2 CLR
04:17 7.6 °F 3.4 °F 1019.2 in West 5.6 mph 5.6 mph 75 % 0.0 in 0.0 W/m2 CLR
04:22 7.5 °F 3.3 °F 1019.2 in WSW 9.3 mph 9.3 mph 75 % 0.0 in 0.0 W/m2 CLR
04:27 7.4 °F 3.3 °F 1019.2 in West 13.0 mph 13.0 mph 75 % 0.0 in 0.0 W/m2 CLR
04:33 7.4 °F 3.1 °F 1019.2 in West 13.0 mph 13.0 mph 74 % 0.0 in 0.0 W/m2 CLR
04:38 7.6 °F 3.0 °F 1019.2 in West 13.0 mph 13.0 mph 73 % 0.0 in 0.0 W/m2 CLR
04:43 7.6 °F 3.1 °F 1019.2 in West 13.0 mph 13.2 mph 73 % 0.0 in 0.0 W/m2 CLR
04:48 7.7 °F 3.0 °F 1019.2 in West 18.5 mph 18.5 mph 72 % 0.0 in 0.0 W/m2 CLR
04:53 7.6 °F 2.9 °F 1019.2 in West 18.5 mph 18.5 mph 72 % 0.0 in 0.0 W/m2 CLR
04:58 7.6 °F 2.9 °F 1019.2 in West 18.5 mph 18.5 mph 72 % 0.0 in 0.0 W/m2 CLR
05:03 7.8 °F 3.1 °F 1019.2 in WNW 18.5 mph 18.5 mph 72 % 0.0 in 0.0 W/m2 CLR
05:08 7.8 °F 3.1 °F 1019.2 in West 18.5 mph 18.5 mph 72 % 0.0 in 0.0 W/m2 CLR
05:13 7.8 °F 3.1 °F 1019.2 in West 18.5 mph 18.5 mph 72 % 0.0 in 0.0 W/m2 CLR
05:18 7.9 °F 3.2 °F 1019.5 in West 20.4 mph 20.4 mph 72 % 0.0 in 0.0 W/m2 CLR
05:23 8.0 °F 3.1 °F 1019.5 in West 20.4 mph 20.4 mph 71 % 0.0 in 0.0 W/m2 CLR
05:28 7.9 °F 3.2 °F 1019.5 in West 16.7 mph 16.7 mph 72 % 0.0 in 0.0 W/m2 CLR
05:33 7.9 °F 3.2 °F 1019.5 in West 18.5 mph 18.5 mph 72 % 0.0 in 0.0 W/m2 CLR
05:38 8.0 °F 3.3 °F 1019.5 in West 24.1 mph 24.1 mph 72 % 0.0 in 0.0 W/m2 CLR
05:43 8.1 °F 3.4 °F 1019.5 in West 22.2 mph 22.2 mph 72 % 0.0 in 0.0 W/m2 CLR
05:48 8.2 °F 3.4 °F 1019.5 in WNW 18.5 mph 18.5 mph 72 % 0.0 in 0.0 W/m2 CLR
05:53 8.1 °F 3.4 °F 1019.5 in West 19.3 mph 19.3 mph 72 % 0.0 in 0.0 W/m2 CLR
05:58 8.1 °F 3.3 °F 1019.5 in WNW 14.8 mph 14.8 mph 72 % 0.0 in 0.0 W/m2 CLR
06:03 8.0 °F 3.4 °F 1019.5 in West 18.5 mph 18.5 mph 73 % 0.0 in 0.0 W/m2 CLR
06:08 7.9 °F 3.4 °F 1019.5 in WSW 14.8 mph 14.8 mph 73 % 0.0 in 0.0 W/m2 CLR
06:13 7.9 °F 3.3 °F 1019.5 in West 18.5 mph 18.5 mph 73 % 0.0 in 0.0 W/m2 CLR
06:18 7.9 °F 3.3 °F 1019.5 in West 18.5 mph 18.5 mph 73 % 0.0 in 0.0 W/m2 CLR
06:23 7.8 °F 3.3 °F 1019.5 in NW 11.1 mph 11.1 mph 73 % 0.0 in 0.0 W/m2 CLR
06:28 7.4 °F 3.1 °F 1019.5 in WNW 11.1 mph 11.1 mph 74 % 0.0 in 0.0 W/m2 CLR
06:33 7.1 °F 3.0 °F 1019.5 in WNW 9.3 mph 9.3 mph 75 % 0.0 in 0.0 W/m2 CLR
06:38 7.1 °F 3.2 °F 1019.5 in Calm     76 % 0.0 in 0.0 W/m2 CLR
06:43 7.2 °F 3.1 °F 1019.9 in WNW 13.0 mph 13.0 mph 75 % 0.0 in 0.0 W/m2 CLR
06:48 7.4 °F 3.2 °F 1019.9 in Calm     75 % 0.0 in 0.0 W/m2 CLR
06:53 7.2 °F 3.1 °F 1019.5 in Calm     75 % 0.0 in 0.0 W/m2 CLR
06:58 6.9 °F 3.0 °F 1019.5 in Calm     76 % 0.0 in 0.0 W/m2 CLR
07:03 6.8 °F 2.9 °F 1019.5 in Calm     76 % 0.0 in 0.0 W/m2 CLR
07:08 6.7 °F 2.9 °F 1019.5 in Calm     77 % 0.0 in 0.0 W/m2 CLR
07:13 6.7 °F 2.9 °F 1019.9 in Calm     77 % 0.0 in 0.0 W/m2 CLR
07:18 6.7 °F 2.9 °F 1019.9 in Calm     77 % 0.0 in 0.0 W/m2 CLR
07:23 6.6 °F 2.8 °F 1019.9 in Calm     77 % 0.0 in 0.0 W/m2 OVC
07:28 6.3 °F 2.6 °F 1019.9 in Calm     77 % 0.0 in 0.0 W/m2 OVC
07:33 6.1 °F 2.6 °F 1019.9 in Calm     78 % 0.0 in 0.0 W/m2 OVC
07:38 6.1 °F 2.6 °F 1019.9 in Calm     78 % 0.0 in 5.0 W/m2 OVC
07:43 6.1 °F 2.7 °F 1020.2 in Calm     79 % 0.0 in 7.0 W/m2 BKN
07:48 6.1 °F 2.5 °F 1020.2 in Calm     78 % 0.0 in 11.0 W/m2 BKN
07:53 6.0 °F 2.6 °F 1020.5 in Calm     79 % 0.0 in 14.0 W/m2 BKN
07:58 6.1 °F 2.7 °F 1020.5 in Calm     79 % 0.0 in 19.0 W/m2 BKN
08:03 6.3 °F 2.7 °F 1020.5 in Calm     78 % 0.0 in 25.0 W/m2 BKN
08:08 6.4 °F 2.9 °F 1020.5 in Calm     78 % 0.0 in 35.0 W/m2 BKN
08:13 6.6 °F 3.1 °F 1020.5 in Calm     78 % 0.0 in 39.0 W/m2 BKN
08:18 6.7 °F 2.7 °F 1020.5 in Calm     76 % 0.0 in 35.0 W/m2 BKN
08:23 6.4 °F 2.7 °F 1020.5 in Calm     77 % 0.0 in 65.0 W/m2 SCT
08:28 6.3 °F 2.8 °F 1020.9 in Calm     78 % 0.0 in 81.0 W/m2 FEW
08:33 6.5 °F 2.9 °F 1020.9 in Calm     78 % 0.0 in 91.0 W/m2 CLR
08:38 6.6 °F 3.1 °F 1020.9 in Calm     78 % 0.0 in 121.0 W/m2 FEW
08:43 6.9 °F 3.3 °F 1020.9 in Calm     78 % 0.0 in 69.0 W/m2 CLR
08:48 7.1 °F 3.6 °F 1020.9 in Calm     78 % 0.0 in 47.0 W/m2 FEW
08:53 7.1 °F 3.3 °F 1020.9 in Calm     77 % 0.0 in 62.0 W/m2 SCT
08:58 7.0 °F 3.4 °F 1020.9 in Calm     78 % 0.0 in 153.0 W/m2 FEW
09:03 7.2 °F 3.6 °F 1021.2 in Calm     78 % 0.0 in 97.0 W/m2 CLR
09:08 7.3 °F 3.7 °F 1020.9 in Calm     78 % 0.0 in 221.0 W/m2 CLR
09:13 7.8 °F 4.2 °F 1021.2 in Calm     78 % 0.0 in 236.0 W/m2 CLR
09:18 8.3 °F 4.3 °F 1021.2 in SW 3.7 mph   76 % 0.0 in 253.0 W/m2 CLR
09:23 8.6 °F 4.2 °F 1021.2 in Calm     74 % 0.0 in 269.0 W/m2 CLR
09:28 8.9 °F 4.6 °F 1020.9 in Calm     74 % 0.0 in 283.0 W/m2 CLR
09:33 9.5 °F 4.7 °F 1021.2 in Calm     72 % 0.0 in 299.0 W/m2 CLR
09:38 9.7 °F 4.3 °F 1020.9 in Calm     69 % 0.0 in 313.0 W/m2 CLR
09:43 10.1 °F 4.4 °F 1021.2 in Calm     68 % 0.0 in 325.0 W/m2 CLR
09:48 10.3 °F 4.1 °F 1021.2 in Calm     65 % 0.0 in 343.0 W/m2 CLR
09:53 10.5 °F 3.9 °F 1021.2 in Calm     64 % 0.0 in 355.0 W/m2 CLR
09:58 10.9 °F 4.6 °F 1020.9 in Calm     65 % 0.0 in 367.0 W/m2 CLR
10:03 11.2 °F 4.2 °F 1020.9 in SSE 1.6 mph 2.4 mph 62 % 0.0 in 380.0 W/m2 CLR
10:08 11.2 °F 4.2 °F 1020.9 in Calm     62 % 0.0 in 396.0 W/m2 CLR
10:13 11.3 °F 4.8 °F 1020.9 in Calm     64 % 0.0 in 406.0 W/m2 CLR
10:19 11.6 °F 4.7 °F 1021.2 in ESE 1.9 mph   63 % 0.0 in 420.0 W/m2 CLR
10:24 11.8 °F 4.7 °F 1021.2 in East 1.9 mph   62 % 0.0 in 432.0 W/m2 CLR
10:29 12.0 °F 4.9 °F 1021.2 in Calm     62 % 0.0 in 446.0 W/m2 CLR
10:34 12.3 °F 5.2 °F 1021.2 in Calm     62 % 0.0 in 459.0 W/m2 CLR
10:39 12.5 °F 5.4 °F 1021.2 in SW 6.4 mph 6.4 mph 62 % 0.0 in 471.0 W/m2 CLR
10:44 12.7 °F 5.6 °F 1021.2 in Calm     62 % 0.0 in 480.0 W/m2 CLR
10:49 13.0 °F 5.7 °F 1021.2 in Calm     61 % 0.0 in 492.0 W/m2 CLR
10:54 13.2 °F 6.3 °F 1021.2 in NNW 14.8 mph 14.8 mph 63 % 0.0 in 503.0 W/m2 CLR
10:59 13.0 °F 5.9 °F 1021.2 in NW 9.3 mph 9.3 mph 62 % 0.0 in 513.0 W/m2 CLR
11:04 12.9 °F 6.1 °F 1021.2 in NW 18.5 mph 18.5 mph 63 % 0.0 in 522.0 W/m2 CLR
11:09 12.9 °F 5.8 °F 1021.2 in West 14.8 mph 14.8 mph 62 % 0.0 in 533.0 W/m2 CLR
11:14 13.2 °F 6.3 °F 1021.2 in NW 11.1 mph 11.1 mph 63 % 0.0 in 541.0 W/m2 CLR
11:19 13.3 °F 5.9 °F 1021.2 in WNW 9.3 mph 9.3 mph 61 % 0.0 in 550.0 W/m2 CLR
11:24 13.4 °F 6.3 °F 1021.2 in NW 24.1 mph 24.1 mph 62 % 0.0 in 563.0 W/m2 CLR
11:29 13.5 °F 6.1 °F 1021.2 in West 22.2 mph 22.2 mph 61 % 0.0 in 570.0 W/m2 CLR
11:34 13.6 °F 6.0 °F 1021.2 in WNW 25.9 mph 25.9 mph 60 % 0.0 in 577.0 W/m2 CLR
11:39 13.7 °F 6.3 °F 1021.2 in NW 20.4 mph 20.4 mph 61 % 0.0 in 585.0 W/m2 CLR
11:49 14.0 °F 6.3 °F 1020.9 in NW 25.9 mph 25.9 mph 60 % 0.0 in 601.0 W/m2 CLR
11:54 14.1 °F 6.2 °F 1020.5 in NNW 18.5 mph 18.5 mph 59 % 0.0 in 606.0 W/m2 CLR
11:59 14.2 °F 6.3 °F 1020.5 in WNW 29.6 mph 29.6 mph 59 % 0.0 in 613.0 W/m2 CLR
12:04 14.3 °F 6.4 °F 1020.5 in WNW 22.5 mph 22.5 mph 59 % 0.0 in 621.0 W/m2 CLR
12:09 14.4 °F 6.3 °F 1020.5 in NNW 16.7 mph 16.7 mph 58 % 0.0 in 624.0 W/m2 CLR
12:14 14.6 °F 6.1 °F 1020.5 in NW 20.4 mph 20.4 mph 57 % 0.0 in 631.0 W/m2 CLR
12:19 14.6 °F 5.9 °F 1020.5 in NW 20.4 mph 20.4 mph 56 % 0.0 in 633.0 W/m2 CLR
12:24 14.6 °F 5.9 °F 1020.5 in NW 20.4 mph 20.4 mph 56 % 0.0 in 640.0 W/m2 CLR
12:29 14.7 °F 6.0 °F 1020.5 in NW 1.9 mph   56 % 0.0 in 642.0 W/m2 CLR
12:34 14.8 °F 5.9 °F 1020.5 in NW 19.3 mph 19.3 mph 55 % 0.0 in 645.0 W/m2 CLR
12:39 14.9 °F 5.7 °F 1020.5 in NNW 7.4 mph 11.1 mph 54 % 0.0 in 649.0 W/m2 CLR
12:45 15.1 °F 5.9 °F 1020.2 in NW 20.4 mph 20.4 mph 54 % 0.0 in 652.0 W/m2 CLR
12:50 15.2 °F 5.9 °F 1020.2 in NNW 18.5 mph 18.5 mph 54 % 0.0 in 656.0 W/m2 CLR
12:55 15.3 °F 6.0 °F 1020.2 in NW 16.7 mph 16.7 mph 54 % 0.0 in 656.0 W/m2 CLR
13:00 15.6 °F 6.0 °F 1019.9 in WNW 14.8 mph 14.8 mph 53 % 0.0 in 657.0 W/m2 CLR
13:05 15.6 °F 5.8 °F 1019.9 in Calm   0.2 mph 52 % 0.0 in 659.0 W/m2 CLR
13:10 15.6 °F 5.5 °F 1019.5 in North 12.9 mph 12.9 mph 51 % 0.0 in 661.0 W/m2 CLR
13:15 15.6 °F 5.8 °F 1019.5 in North 5.6 mph 5.6 mph 52 % 0.0 in 659.0 W/m2 CLR
13:20 15.8 °F 5.9 °F 1019.5 in NNW 5.6 mph 6.4 mph 52 % 0.0 in 661.0 W/m2 CLR
13:21 15.8 °F 5.9 °F 1019.5 in NNW 12.9 mph 12.9 mph 52 % 0.0 in 661.0 W/m2 CLR
13:26 15.8 °F 6.0 °F 1019.5 in WNW 11.1 mph 11.1 mph 52 % 0.0 in 659.0 W/m2 CLR
13:31 15.8 °F 5.7 °F 1019.5 in North 16.7 mph 16.7 mph 51 % 0.0 in 656.0 W/m2 CLR
13:36 15.8 °F 5.9 °F 1019.5 in North 3.2 mph 3.2 mph 52 % 0.0 in 657.0 W/m2 CLR
13:41 15.9 °F 6.1 °F 1019.5 in North 11.1 mph 11.1 mph 52 % 0.0 in 656.0 W/m2 CLR
13:46 16.0 °F 5.8 °F 1019.5 in NNE 16.7 mph 16.7 mph 51 % 0.0 in 652.0 W/m2 CLR
13:51 16.0 °F 6.4 °F 1019.2 in NNE 16.1 mph 16.1 mph 53 % 0.0 in 649.0 W/m2 CLR
13:56 15.9 °F 5.5 °F 1019.2 in NNE 9.3 mph 9.3 mph 50 % 0.0 in 647.0 W/m2 CLR
14:01 15.9 °F 5.5 °F 1019.2 in North 14.8 mph 14.8 mph 50 % 0.0 in 643.0 W/m2 CLR
14:06 16.0 °F 5.8 °F 1019.2 in NNW 9.3 mph 9.3 mph 51 % 0.0 in 640.0 W/m2 CLR
14:11 16.3 °F 6.1 °F 1019.2 in NNE 1.9 mph 1.9 mph 51 % 0.0 in 635.0 W/m2 CLR
14:16 16.4 °F 5.7 °F 1018.8 in North 18.5 mph 18.5 mph 49 % 0.0 in 631.0 W/m2 CLR
14:21 16.3 °F 5.6 °F 1018.8 in NE 11.1 mph 11.1 mph 49 % 0.0 in 626.0 W/m2 CLR
14:26 16.3 °F 5.6 °F 1018.8 in North 16.7 mph 16.7 mph 49 % 0.0 in 619.0 W/m2 CLR
14:31 16.4 °F 5.7 °F 1018.8 in NNW 3.7 mph   49 % 0.0 in 612.0 W/m2 CLR
14:36 16.6 °F 5.6 °F 1018.8 in NNE 1.9 mph   48 % 0.0 in 606.0 W/m2 CLR
14:41 16.8 °F 5.7 °F 1018.8 in NNE 3.7 mph 3.7 mph 48 % 0.0 in 601.0 W/m2 CLR
14:46 16.9 °F 5.8 °F 1018.8 in NNE 3.7 mph 3.7 mph 48 % 0.0 in 594.0 W/m2 CLR
14:51 16.9 °F 5.8 °F 1018.8 in North 5.6 mph 5.6 mph 48 % 0.0 in 589.0 W/m2 CLR
14:56 17.0 °F 6.2 °F 1018.5 in ENE 1.9 mph   49 % 0.0 in 580.0 W/m2 CLR
15:01 17.2 °F 6.1 °F 1018.5 in NE 14.5 mph 14.5 mph 48 % 0.0 in 573.0 W/m2 CLR
15:06 17.1 °F 6.0 °F 1018.5 in ENE 16.7 mph 16.7 mph 48 % 0.0 in 563.0 W/m2 CLR
15:11 17.0 °F 6.2 °F 1018.5 in NNE 13.0 mph 13.0 mph 49 % 0.0 in 552.0 W/m2 CLR
15:16 17.0 °F 5.9 °F 1018.5 in North 4.8 mph 4.8 mph 48 % 0.0 in 543.0 W/m2 CLR
15:21 16.9 °F 6.1 °F 1018.5 in NNE 11.1 mph 11.1 mph 49 % 0.0 in 534.0 W/m2 CLR
15:26 16.9 °F 5.8 °F 1018.5 in ENE 5.6 mph   48 % 0.0 in 526.0 W/m2 CLR
15:31 17.0 °F 6.2 °F 1018.2 in North 13.0 mph 13.0 mph 49 % 0.0 in 513.0 W/m2 CLR
15:37 17.0 °F 6.2 °F 1018.5 in NE 3.7 mph 3.7 mph 49 % 0.0 in 504.0 W/m2 CLR
15:41 17.0 °F 5.6 °F 1018.5 in NE 13.0 mph 13.0 mph 47 % 0.0 in 494.0 W/m2 CLR
15:47 17.1 °F 5.9 °F 1018.2 in Calm     48 % 0.0 in 482.0 W/m2 CLR
15:52 17.2 °F 5.8 °F 1018.5 in Calm     47 % 0.0 in 471.0 W/m2 CLR
15:57 17.1 °F 5.4 °F 1018.5 in East 3.7 mph 3.7 mph 46 % 0.0 in 457.0 W/m2 CLR
16:02 16.8 °F 5.4 °F 1018.2 in ENE 5.6 mph 5.6 mph 47 % 0.0 in 445.0 W/m2 CLR
16:07 16.7 °F 5.9 °F 1018.2 in ESE 1.6 mph 1.6 mph 49 % 0.0 in 432.0 W/m2 CLR
16:12 16.8 °F 6.1 °F 1018.2 in NE 14.5 mph 14.5 mph 49 % 0.0 in 418.0 W/m2 CLR
16:17 16.9 °F 5.8 °F 1018.2 in NNW 14.8 mph 14.8 mph 48 % 0.0 in 406.0 W/m2 CLR
16:22 16.9 °F 5.8 °F 1018.2 in Calm     48 % 0.0 in 392.0 W/m2 CLR
16:27 17.0 °F 5.6 °F 1018.2 in Calm     47 % 0.0 in 378.0 W/m2 CLR
16:32 17.1 °F 6.0 °F 1018.2 in Calm     48 % 0.0 in 366.0 W/m2 CLR
16:37 17.2 °F 5.8 °F 1018.2 in NE 5.6 mph 5.6 mph 47 % 0.0 in 350.0 W/m2 CLR
16:42 17.2 °F 5.8 °F 1018.2 in ENE 6.4 mph 6.4 mph 47 % 0.0 in 338.0 W/m2 CLR
16:47 17.2 °F 5.8 °F 1018.2 in Calm     47 % 0.0 in 323.0 W/m2 CLR
16:52 17.2 °F 6.1 °F 1018.2 in Calm     48 % 0.0 in 309.0 W/m2 CLR
16:57 17.4 °F 6.0 °F 1018.2 in Calm     47 % 0.0 in 294.0 W/m2 CLR
17:02 17.5 °F 5.7 °F 1018.2 in Calm     46 % 0.0 in 279.0 W/m2 CLR
17:07 17.4 °F 5.7 °F 1018.2 in Calm     46 % 0.0 in 265.0 W/m2 CLR
17:12 17.3 °F 5.6 °F 1018.2 in Calm     46 % 0.0 in 250.0 W/m2 CLR
17:17 17.2 °F 5.8 °F 1018.2 in Calm     47 % 0.0 in 230.0 W/m2 CLR
17:22 17.2 °F 5.8 °F 1017.8 in ENE 5.6 mph 5.6 mph 47 % 0.0 in 213.0 W/m2 CLR
17:27 17.0 °F 5.3 °F 1017.8 in East 3.7 mph 3.7 mph 46 % 0.0 in 195.0 W/m2 CLR
17:32 16.8 °F 5.1 °F 1017.8 in Calm     46 % 0.0 in 179.0 W/m2 CLR
17:37 16.7 °F 5.1 °F 1017.8 in Calm     46 % 0.0 in 162.0 W/m2 CLR
17:42 16.7 °F 5.6 °F 1017.8 in Calm     48 % 0.0 in 141.0 W/m2 CLR
17:47 16.7 °F 5.3 °F 1017.8 in Calm     47 % 0.0 in 125.0 W/m2 CLR
17:52 16.6 °F 5.2 °F 1017.8 in ENE 5.6 mph 5.6 mph 47 % 0.0 in 109.0 W/m2 CLR
17:57 16.6 °F 5.2 °F 1017.8 in East 5.6 mph 5.6 mph 47 % 0.0 in 95.0 W/m2 CLR
18:02 16.5 °F 5.2 °F 1017.8 in East 3.7 mph 3.7 mph 47 % 0.0 in 77.0 W/m2 FEW
18:07 16.5 °F 5.2 °F 1018.2 in Calm     47 % 0.0 in 56.0 W/m2 SCT
18:12 16.5 °F 5.2 °F 1017.8 in East 3.7 mph 3.7 mph 47 % 0.0 in 51.0 W/m2 SCT
18:17 16.4 °F 5.3 °F 1018.2 in Calm     48 % 0.0 in 40.0 W/m2 BKN
18:22 16.4 °F 5.4 °F 1018.2 in Calm     48 % 0.0 in 28.0 W/m2 BKN
18:27 16.4 °F 5.4 °F 1018.2 in Calm     48 % 0.0 in 18.0 W/m2 BKN
18:32 16.3 °F 5.2 °F 1018.2 in Calm     48 % 0.0 in 12.0 W/m2 BKN
18:37 16.1 °F 5.6 °F 1018.2 in ESE 3.7 mph 3.7 mph 50 % 0.0 in 11.0 W/m2 BKN
18:42 15.8 °F 6.3 °F 1018.2 in ESE 5.6 mph 5.6 mph 53 % 0.0 in 9.0 W/m2 BKN
18:47 15.7 °F 6.7 °F 1018.2 in ESE 3.7 mph 3.7 mph 55 % 0.0 in 5.0 W/m2 BKN
18:52 15.4 °F 6.4 °F 1018.2 in Calm     55 % 0.0 in 0.0 W/m2 OVC
18:57 15.2 °F 6.7 °F 1018.2 in Calm     57 % 0.0 in 0.0 W/m2 OVC
19:02 14.9 °F 6.5 °F 1018.2 in Calm     57 % 0.0 in 0.0 W/m2 CLR
19:07 14.8 °F 6.6 °F 1018.5 in Calm     58 % 0.0 in 0.0 W/m2 CLR
19:12 14.6 °F 6.7 °F 1018.5 in Calm     59 % 0.0 in 0.0 W/m2 CLR
19:17 14.4 °F 6.8 °F 1018.5 in Calm     60 % 0.0 in 0.0 W/m2 CLR
19:22 14.3 °F 6.8 °F 1018.5 in Calm     61 % 0.0 in 0.0 W/m2 CLR
19:27 14.1 °F 6.9 °F 1018.5 in Calm     62 % 0.0 in 0.0 W/m2 CLR
19:32 13.9 °F 7.0 °F 1018.5 in Calm     63 % 0.0 in 0.0 W/m2 CLR
19:37 13.8 °F 6.9 °F 1018.5 in Calm     63 % 0.0 in 0.0 W/m2 CLR
19:42 13.7 °F 6.8 °F 1018.8 in Calm     63 % 0.0 in 0.0 W/m2 CLR
19:47 13.4 °F 6.9 °F 1018.5 in Calm     65 % 0.0 in 0.0 W/m2 CLR
19:52 13.1 °F 6.9 °F 1018.8 in Calm     66 % 0.0 in 0.0 W/m2 CLR
19:57 13.0 °F 6.8 °F 1018.8 in Calm     66 % 0.0 in 0.0 W/m2 CLR
20:02 12.7 °F 6.5 °F 1018.8 in Calm     66 % 0.0 in 0.0 W/m2 CLR
20:07 12.2 °F 6.3 °F 1018.8 in Calm     67 % 0.0 in 0.0 W/m2 CLR
20:12 11.7 °F 6.2 °F 1018.8 in Calm     69 % 0.0 in 0.0 W/m2 CLR
20:17 11.3 °F 6.1 °F 1018.8 in Calm     70 % 0.0 in 0.0 W/m2 CLR
20:22 11.1 °F 6.3 °F 1018.8 in Calm     72 % 0.0 in 0.0 W/m2 CLR
20:27 10.9 °F 6.3 °F 1018.8 in Calm     73 % 0.0 in 0.0 W/m2 CLR
20:32 10.8 °F 6.4 °F 1018.8 in Calm     74 % 0.0 in 0.0 W/m2 CLR
20:33 10.8 °F 6.4 °F 1018.8 in Calm     74 % 0.0 in 0.0 W/m2 CLR
20:38 10.7 °F 6.1 °F 1019.2 in Calm     73 % 0.0 in 0.0 W/m2 CLR
20:43 10.3 °F 5.7 °F 1019.2 in Calm     73 % 0.0 in 0.0 W/m2 CLR
20:48 10.0 °F 5.6 °F 1019.2 in Calm     74 % 0.0 in 0.0 W/m2 CLR
20:53 9.8 °F 5.6 °F 1019.2 in Calm     75 % 0.0 in 0.0 W/m2 CLR
20:58 9.6 °F 5.6 °F 1019.2 in Calm     76 % 0.0 in 0.0 W/m2 CLR
21:03 9.4 °F 5.6 °F 1019.2 in Calm     77 % 0.0 in 0.0 W/m2 CLR
21:08 9.3 °F 5.7 °F 1019.2 in Calm     78 % 0.0 in 0.0 W/m2 CLR
21:13 9.2 °F 5.6 °F 1019.2 in Calm     78 % 0.0 in 0.0 W/m2 CLR
21:18 9.2 °F 5.6 °F 1019.5 in Calm     78 % 0.0 in 0.0 W/m2 CLR
21:23 9.2 °F 5.6 °F 1019.5 in Calm     78 % 0.0 in 0.0 W/m2 CLR
21:28 9.1 °F 5.5 °F 1019.9 in Calm     78 % 0.0 in 0.0 W/m2 CLR
21:33 9.0 °F 5.6 °F 1019.9 in Calm     79 % 0.0 in 0.0 W/m2 CLR
21:38 8.8 °F 5.4 °F 1019.5 in Calm     79 % 0.0 in 0.0 W/m2 CLR
21:43 8.7 °F 5.2 °F 1019.5 in Calm     79 % 0.0 in 0.0 W/m2 CLR
21:48 8.6 °F 5.1 °F 1019.9 in Calm     79 % 0.0 in 0.0 W/m2 CLR
21:53 8.4 °F 5.1 °F 1019.9 in Calm     80 % 0.0 in 0.0 W/m2 CLR
21:58 8.3 °F 5.3 °F 1019.9 in Calm     81 % 0.0 in 0.0 W/m2 CLR
22:03 8.2 °F 5.2 °F 1019.9 in Calm     81 % 0.0 in 0.0 W/m2 CLR
22:08 8.1 °F 5.0 °F 1019.9 in Calm     81 % 0.0 in 0.0 W/m2 CLR
22:13 8.1 °F 5.2 °F 1020.2 in Calm     82 % 0.0 in 0.0 W/m2 CLR
22:18 8.1 °F 5.2 °F 1019.9 in Calm     82 % 0.0 in 0.0 W/m2 CLR
22:23 8.1 °F 5.4 °F 1019.9 in Calm     83 % 0.0 in 0.0 W/m2 CLR
22:28 8.1 °F 5.2 °F 1019.9 in Calm     82 % 0.0 in 0.0 W/m2 CLR
22:33 8.0 °F 5.1 °F 1020.2 in Calm     82 % 0.0 in 0.0 W/m2 CLR
22:38 8.0 °F 5.3 °F 1020.2 in Calm     83 % 0.0 in 0.0 W/m2 CLR
22:43 7.9 °F 5.1 °F 1020.2 in Calm     82 % 0.0 in 0.0 W/m2 CLR
22:48 7.9 °F 5.2 °F 1020.2 in Calm     83 % 0.0 in 0.0 W/m2 CLR
22:53 7.7 °F 4.8 °F 1020.2 in Calm     82 % 0.0 in 0.0 W/m2 CLR
22:58 7.5 °F 4.9 °F 1019.9 in SW 5.6 mph 5.6 mph 84 % 0.0 in 0.0 W/m2 CLR
23:03 7.4 °F 4.9 °F 1019.9 in Calm     84 % 0.0 in 0.0 W/m2 CLR
23:08 7.5 °F 5.2 °F 1019.9 in Calm     85 % 0.0 in 0.0 W/m2 CLR
23:13 7.6 °F 5.2 °F 1020.2 in Calm     85 % 0.0 in 0.0 W/m2 CLR
23:18 7.6 °F 5.2 °F 1020.2 in Calm     85 % 0.0 in 0.0 W/m2 CLR
23:23 7.6 °F 5.2 °F 1020.2 in Calm     85 % 0.0 in 0.0 W/m2 CLR
23:28 7.6 °F 5.2 °F 1020.2 in Calm     85 % 0.0 in 0.0 W/m2 CLR
23:33 7.6 °F 5.2 °F 1020.2 in Calm     85 % 0.0 in 0.0 W/m2 CLR
23:38 7.6 °F 5.2 °F 1020.2 in Calm     85 % 0.0 in 0.0 W/m2 CLR
23:43 7.6 °F 5.2 °F 1020.2 in Calm     85 % 0.0 in 0.0 W/m2 CLR
23:48 7.4 °F 5.1 °F 1020.2 in Calm     85 % 0.0 in 0.0 W/m2 CLR
23:53 7.3 °F 5.1 °F 1020.2 in Calm     86 % 0.0 in 0.0 W/m2 CLR
23:58 7.5 °F 5.5 °F 1020.2 in Calm     87 % 0.0 in 0.0 W/m2 CLR
Lo Temps de Massalio
Compliments of Weather Underground - 1.25 mb